Terminal Aerodrome Forecast
Issued by NWS

Home | Current Version | Previous Version | Text Only | Print | Product List | Glossary On
Versions: 1 2 3 4 5 6 7 8 9 10 11 12 13 14 15 16 17 18 19 20 21 22 23 24 25 26 27
000
FTUS45 KBOI 231121
TAFMYL
TAF
KMYL 231121Z 2312/2412 VRB04KT P6SM FEW050 SCT100
     FM232000 19014G24KT P6SM BKN150
     FM240200 25010KT P6SM VCSH SCT080 BKN100
     FM240800 VRB06KT P6SM SCT120=

USA.gov is the U.S. government's official web portal to all federal, state and local government web resources and services.